TAM3377 SBRF-SBGR
Flight info
| Callsign | TAM3377 |
|---|---|
| Flight time | 2h 43m |
| Altitude | 34000 |
| Route | UDOSA UZ21 VUNOX |
| Aircraft | A21N/M-SDE3FGHIRWY/LB1 |
Departure
| Time | 2026-05-03 23:56 |
|---|---|
| Airport | Recife/Guararapes - Gilberto Freyre International Airport (SBRF) |
Arrival
| Time | 2026-05-04 02:39 |
|---|---|
| Airport | São Paulo/Guarulhos–Governor André Franco Montoro International Airport (SBGR) |
| Time | Latitude | Longitude | Altitude | Speed | Heading |
|---|---|---|---|---|---|
| 2026-05-03 23:24 | -8.13058 | -34.91952 | 43 ft | 0 kts | 71° |
| 2026-05-03 23:47 | -8.13060 | -34.91958 | 41 ft | 4 kts | 69° |
| 2026-05-03 23:47 | -8.13071 | -34.91982 | 40 ft | 4 kts | 61° |
| 2026-05-03 23:48 | -8.13084 | -34.92006 | 40 ft | 4 kts | 61° |
| 2026-05-03 23:48 | -8.13097 | -34.92029 | 43 ft | 4 kts | 61° |
| 2026-05-03 23:48 | -8.13110 | -34.92053 | 40 ft | 4 kts | 61° |
| 2026-05-03 23:48 | -8.13113 | -34.92059 | 40 ft | 0 kts | 61° |
| 2026-05-03 23:51 | -8.13111 | -34.92055 | 40 ft | 2 kts | 61° |
| 2026-05-03 23:51 | -8.13074 | -34.92025 | 43 ft | 9 kts | 8° |
| 2026-05-03 23:51 | -8.12996 | -34.92046 | 43 ft | 14 kts | 342° |
| 2026-05-03 23:52 | -8.12926 | -34.92070 | 43 ft | 18 kts | 341° |
| 2026-05-03 23:52 | -8.12794 | -34.92115 | 43 ft | 22 kts | 341° |
| 2026-05-03 23:52 | -8.12647 | -34.92163 | 43 ft | 23 kts | 341° |
| 2026-05-03 23:52 | -8.12495 | -34.92214 | 43 ft | 24 kts | 342° |
| 2026-05-03 23:53 | -8.12342 | -34.92264 | 43 ft | 22 kts | 342° |
| 2026-05-03 23:53 | -8.12192 | -34.92313 | 43 ft | 23 kts | 342° |
| 2026-05-03 23:53 | -8.12036 | -34.92363 | 42 ft | 24 kts | 342° |
| 2026-05-03 23:53 | -8.11876 | -34.92417 | 42 ft | 25 kts | 341° |
| 2026-05-03 23:54 | -8.11746 | -34.92459 | 42 ft | 19 kts | 342° |
| 2026-05-03 23:54 | -8.11621 | -34.92504 | 40 ft | 20 kts | 330° |
| 2026-05-03 23:54 | -8.11517 | -34.92588 | 43 ft | 18 kts | 319° |
| 2026-05-03 23:54 | -8.11446 | -34.92676 | 42 ft | 15 kts | 248° |
| 2026-05-03 23:55 | -8.11542 | -34.92679 | 42 ft | 16 kts | 164° |
| 2026-05-03 23:55 | -8.11559 | -34.92674 | 42 ft | 12 kts | 163° |
| 2026-05-03 23:55 | -8.11891 | -34.92564 | 41 ft | 88 kts | 162° |
| 2026-05-03 23:55 | -8.12691 | -34.92297 | 46 ft | 151 kts | 162° |
| 2026-05-03 23:56 | -8.13798 | -34.91944 | 313 ft | 171 kts | 162° |
| 2026-05-03 23:56 | -8.14876 | -34.91579 | 1018 ft | 159 kts | 160° |
| 2026-05-03 23:56 | -8.15972 | -34.91232 | 1385 ft | 171 kts | 163° |
| 2026-05-03 23:56 | -8.17152 | -34.90893 | 1844 ft | 184 kts | 169° |
| 2026-05-03 23:57 | -8.18471 | -34.91042 | 2259 ft | 203 kts | 199° |
| 2026-05-03 23:57 | -8.19635 | -34.91947 | 2699 ft | 226 kts | 230° |
| 2026-05-03 23:57 | -8.20334 | -34.93474 | 3047 ft | 253 kts | 249° |
| 2026-05-03 23:57 | -8.21159 | -34.95075 | 3568 ft | 263 kts | 231° |
| 2026-05-03 23:58 | -8.22265 | -34.96565 | 4313 ft | 267 kts | 230° |
| 2026-05-03 23:58 | -8.23391 | -34.98075 | 5104 ft | 271 kts | 230° |
| 2026-05-03 23:58 | -8.24516 | -34.99612 | 5869 ft | 274 kts | 231° |
| 2026-05-03 23:58 | -8.25646 | -35.01182 | 6576 ft | 278 kts | 232° |
| 2026-05-03 23:59 | -8.26786 | -35.02779 | 7246 ft | 282 kts | 232° |
| 2026-05-03 23:59 | -8.27935 | -35.04397 | 7932 ft | 286 kts | 233° |
| 2026-05-03 23:59 | -8.29100 | -35.06040 | 8608 ft | 289 kts | 233° |
| 2026-05-03 23:59 | -8.30276 | -35.07701 | 9270 ft | 293 kts | 234° |
| 2026-05-04 00:00 | -8.31465 | -35.09384 | 9926 ft | 296 kts | 234° |
| 2026-05-04 00:00 | -8.32680 | -35.11105 | 10385 ft | 306 kts | 235° |
| 2026-05-04 00:00 | -8.33944 | -35.12897 | 10710 ft | 320 kts | 235° |
| 2026-05-04 00:00 | -8.35259 | -35.14763 | 11102 ft | 331 kts | 235° |
| 2026-05-04 00:01 | -8.36606 | -35.16672 | 11642 ft | 336 kts | 235° |
| 2026-05-04 00:01 | -8.37968 | -35.18600 | 12243 ft | 339 kts | 235° |
| 2026-05-04 00:01 | -8.39341 | -35.20546 | 12838 ft | 342 kts | 235° |
| 2026-05-04 00:01 | -8.40726 | -35.22510 | 13429 ft | 345 kts | 235° |
| 2026-05-04 00:02 | -8.42124 | -35.24493 | 13984 ft | 349 kts | 235° |
| 2026-05-04 00:02 | -8.43537 | -35.26498 | 14501 ft | 352 kts | 234° |
| 2026-05-04 00:02 | -8.44961 | -35.28518 | 15015 ft | 355 kts | 234° |
| 2026-05-04 00:02 | -8.46398 | -35.30557 | 15528 ft | 358 kts | 234° |
| 2026-05-04 00:03 | -8.47850 | -35.32618 | 16038 ft | 361 kts | 234° |
| 2026-05-04 00:03 | -8.49313 | -35.34695 | 16548 ft | 364 kts | 234° |
| 2026-05-04 00:03 | -8.50783 | -35.36783 | 17056 ft | 367 kts | 233° |
| 2026-05-04 00:03 | -8.52270 | -35.38893 | 17557 ft | 370 kts | 233° |
| 2026-05-04 00:04 | -8.53772 | -35.41024 | 18037 ft | 373 kts | 233° |
| 2026-05-04 00:04 | -8.55282 | -35.43168 | 18498 ft | 376 kts | 233° |
| 2026-05-04 00:04 | -8.56806 | -35.45331 | 18915 ft | 380 kts | 233° |
| 2026-05-04 00:04 | -8.58345 | -35.47518 | 19326 ft | 383 kts | 233° |
| 2026-05-04 00:05 | -8.59893 | -35.49717 | 19736 ft | 386 kts | 233° |
| 2026-05-04 00:05 | -8.61433 | -35.51907 | 20134 ft | 389 kts | 233° |
| 2026-05-04 00:05 | -8.63029 | -35.54174 | 20540 ft | 392 kts | 233° |
| 2026-05-04 00:05 | -8.64594 | -35.56397 | 20938 ft | 395 kts | 233° |
| 2026-05-04 00:06 | -8.66192 | -35.58667 | 21349 ft | 398 kts | 233° |
| 2026-05-04 00:06 | -8.67801 | -35.60955 | 21753 ft | 401 kts | 233° |
| 2026-05-04 00:06 | -8.69420 | -35.63258 | 22138 ft | 404 kts | 233° |
| 2026-05-04 00:06 | -8.71056 | -35.65583 | 22528 ft | 407 kts | 233° |
| 2026-05-04 00:07 | -8.72701 | -35.67924 | 22912 ft | 410 kts | 233° |
| 2026-05-04 00:07 | -8.74356 | -35.70278 | 23284 ft | 413 kts | 233° |
| 2026-05-04 00:07 | -8.76024 | -35.72652 | 23647 ft | 416 kts | 233° |
| 2026-05-04 00:07 | -8.77703 | -35.75043 | 23972 ft | 418 kts | 233° |
| 2026-05-04 00:08 | -8.79386 | -35.77439 | 24332 ft | 419 kts | 233° |
| 2026-05-04 00:08 | -8.81072 | -35.79842 | 24702 ft | 419 kts | 233° |
| 2026-05-04 00:08 | -8.82763 | -35.82250 | 25075 ft | 420 kts | 233° |
| 2026-05-04 00:08 | -8.84456 | -35.84663 | 25431 ft | 421 kts | 233° |
| 2026-05-04 00:09 | -8.86152 | -35.87079 | 25793 ft | 422 kts | 233° |
| 2026-05-04 00:09 | -8.87850 | -35.89496 | 26143 ft | 422 kts | 233° |
| 2026-05-04 00:09 | -8.89553 | -35.91921 | 26483 ft | 423 kts | 233° |
| 2026-05-04 00:09 | -8.91256 | -35.94349 | 26831 ft | 424 kts | 234° |
| 2026-05-04 00:10 | -8.92965 | -35.96786 | 27169 ft | 425 kts | 234° |
| 2026-05-04 00:10 | -8.94681 | -35.99233 | 27483 ft | 426 kts | 234° |
| 2026-05-04 00:10 | -8.96396 | -36.01682 | 27815 ft | 427 kts | 234° |
| 2026-05-04 00:10 | -8.98117 | -36.04135 | 28141 ft | 428 kts | 234° |
| 2026-05-04 00:11 | -8.99838 | -36.06586 | 28460 ft | 429 kts | 234° |
| 2026-05-04 00:11 | -9.01567 | -36.09054 | 28769 ft | 430 kts | 234° |
| 2026-05-04 00:11 | -9.03312 | -36.11512 | 29058 ft | 431 kts | 231° |
| 2026-05-04 00:11 | -9.05350 | -36.13725 | 29319 ft | 431 kts | 220° |
| 2026-05-04 00:12 | -9.07748 | -36.15556 | 29598 ft | 432 kts | 215° |
| 2026-05-04 00:12 | -9.10223 | -36.17282 | 29870 ft | 433 kts | 214° |
| 2026-05-04 00:12 | -9.12712 | -36.19004 | 30124 ft | 434 kts | 214° |
| 2026-05-04 00:12 | -9.15207 | -36.20745 | 30350 ft | 435 kts | 215° |
| 2026-05-04 00:13 | -9.17694 | -36.22497 | 30555 ft | 437 kts | 215° |
| 2026-05-04 00:13 | -9.20191 | -36.24261 | 30728 ft | 439 kts | 215° |
| 2026-05-04 00:13 | -9.22697 | -36.26032 | 30921 ft | 440 kts | 215° |
| 2026-05-04 00:13 | -9.25209 | -36.27810 | 31133 ft | 441 kts | 216° |
| 2026-05-04 00:14 | -9.27694 | -36.29567 | 31342 ft | 442 kts | 216° |
| 2026-05-04 00:14 | -9.30216 | -36.31352 | 31549 ft | 443 kts | 216° |
| 2026-05-04 00:14 | -9.32776 | -36.33163 | 31744 ft | 444 kts | 216° |
| 2026-05-04 00:14 | -9.35309 | -36.34957 | 31944 ft | 445 kts | 216° |
| 2026-05-04 00:15 | -9.37844 | -36.36752 | 32147 ft | 446 kts | 216° |
| 2026-05-04 00:15 | -9.40352 | -36.38530 | 32362 ft | 445 kts | 216° |
| 2026-05-04 00:15 | -9.42885 | -36.40325 | 32625 ft | 444 kts | 217° |
| 2026-05-04 00:15 | -9.45448 | -36.42141 | 32892 ft | 443 kts | 217° |
| 2026-05-04 00:16 | -9.47937 | -36.43902 | 33140 ft | 442 kts | 217° |
| 2026-05-04 00:16 | -9.50453 | -36.45684 | 33385 ft | 441 kts | 217° |
| 2026-05-04 00:16 | -9.52958 | -36.47459 | 33629 ft | 440 kts | 217° |
| 2026-05-04 00:16 | -9.55470 | -36.49241 | 33856 ft | 439 kts | 217° |
| 2026-05-04 00:17 | -9.57971 | -36.51014 | 34052 ft | 439 kts | 218° |
| 2026-05-04 00:17 | -9.60470 | -36.52787 | 34091 ft | 441 kts | 218° |
| 2026-05-04 00:17 | -9.65546 | -36.56393 | 34076 ft | 450 kts | 218° |
| 2026-05-04 00:18 | -9.70713 | -36.60066 | 34060 ft | 457 kts | 218° |
| 2026-05-04 00:18 | -9.75916 | -36.63782 | 34056 ft | 457 kts | 218° |
| 2026-05-04 00:19 | -9.81114 | -36.67485 | 34051 ft | 456 kts | 218° |
| 2026-05-04 00:19 | -9.86307 | -36.71188 | 34051 ft | 456 kts | 218° |
| 2026-05-04 00:20 | -9.91492 | -36.74886 | 34048 ft | 456 kts | 218° |
| 2026-05-04 00:20 | -9.96684 | -36.78602 | 34047 ft | 456 kts | 218° |
| 2026-05-04 00:21 | -10.01871 | -36.82312 | 34047 ft | 457 kts | 218° |
| 2026-05-04 00:21 | -10.07069 | -36.86028 | 34048 ft | 457 kts | 218° |
| 2026-05-04 00:22 | -10.12262 | -36.89746 | 34046 ft | 457 kts | 218° |
| 2026-05-04 00:22 | -10.17459 | -36.93466 | 34047 ft | 457 kts | 218° |
| 2026-05-04 00:23 | -10.22657 | -36.97188 | 34048 ft | 457 kts | 218° |
| 2026-05-04 00:23 | -10.27853 | -37.00917 | 34051 ft | 459 kts | 218° |
| 2026-05-04 00:24 | -10.33074 | -37.04657 | 34051 ft | 460 kts | 218° |
| 2026-05-04 00:24 | -10.38270 | -37.08384 | 34052 ft | 460 kts | 218° |
| 2026-05-04 00:25 | -10.43494 | -37.12134 | 34050 ft | 460 kts | 218° |
| 2026-05-04 00:25 | -10.48746 | -37.15904 | 34052 ft | 465 kts | 218° |
| 2026-05-04 00:26 | -10.54038 | -37.19701 | 34054 ft | 466 kts | 217° |
| 2026-05-04 00:26 | -10.59347 | -37.23516 | 34049 ft | 468 kts | 217° |
| 2026-05-04 00:27 | -10.64657 | -37.27331 | 34052 ft | 467 kts | 217° |
| 2026-05-04 00:27 | -10.69958 | -37.31143 | 34050 ft | 467 kts | 217° |
| 2026-05-04 00:28 | -10.75261 | -37.34955 | 34051 ft | 467 kts | 217° |
| 2026-05-04 00:28 | -10.80558 | -37.38771 | 34058 ft | 467 kts | 217° |
| 2026-05-04 00:29 | -10.85889 | -37.42612 | 34053 ft | 470 kts | 217° |
| 2026-05-04 00:29 | -10.91230 | -37.46460 | 34053 ft | 470 kts | 217° |
| 2026-05-04 00:30 | -10.96573 | -37.50305 | 34056 ft | 469 kts | 217° |
| 2026-05-04 00:30 | -11.01891 | -37.54141 | 34058 ft | 469 kts | 217° |
| 2026-05-04 00:31 | -11.07217 | -37.57980 | 34061 ft | 470 kts | 216° |
| 2026-05-04 00:31 | -11.12562 | -37.61836 | 34057 ft | 471 kts | 216° |
| 2026-05-04 00:32 | -11.17914 | -37.65704 | 34062 ft | 471 kts | 216° |
| 2026-05-04 00:32 | -11.23259 | -37.69564 | 34062 ft | 471 kts | 216° |
| 2026-05-04 00:33 | -11.31281 | -37.75359 | 34064 ft | 471 kts | 216° |
| 2026-05-04 00:34 | -11.36594 | -37.79202 | 34067 ft | 472 kts | 216° |
| 2026-05-04 00:34 | -11.41945 | -37.83072 | 34065 ft | 472 kts | 216° |
| 2026-05-04 00:35 | -11.47299 | -37.86950 | 34064 ft | 472 kts | 216° |
| 2026-05-04 00:35 | -11.52640 | -37.90835 | 34063 ft | 472 kts | 216° |
| 2026-05-04 00:36 | -11.57979 | -37.94729 | 34065 ft | 472 kts | 216° |
| 2026-05-04 00:36 | -11.63322 | -37.98616 | 34063 ft | 472 kts | 216° |
| 2026-05-04 00:37 | -11.67760 | -38.01851 | 34067 ft | 472 kts | 216° |
| 2026-05-04 00:37 | -11.73099 | -38.05748 | 34069 ft | 472 kts | 216° |
| 2026-05-04 00:38 | -11.78443 | -38.09646 | 34071 ft | 472 kts | 216° |
| 2026-05-04 00:38 | -11.83782 | -38.13542 | 34070 ft | 472 kts | 216° |
| 2026-05-04 00:39 | -11.89129 | -38.17445 | 34071 ft | 473 kts | 216° |
| 2026-05-04 00:39 | -11.94475 | -38.21354 | 34073 ft | 473 kts | 216° |
| 2026-05-04 00:40 | -11.99816 | -38.25260 | 34075 ft | 472 kts | 216° |
| 2026-05-04 00:40 | -12.05170 | -38.29173 | 34074 ft | 472 kts | 216° |
| 2026-05-04 00:41 | -12.10506 | -38.33082 | 34074 ft | 472 kts | 216° |
| 2026-05-04 00:41 | -12.15854 | -38.36998 | 34074 ft | 473 kts | 216° |
| 2026-05-04 00:42 | -12.21200 | -38.40901 | 34077 ft | 473 kts | 216° |
| 2026-05-04 00:42 | -12.26538 | -38.44820 | 34074 ft | 472 kts | 216° |
| 2026-05-04 00:43 | -12.31884 | -38.48744 | 34074 ft | 472 kts | 216° |
| 2026-05-04 00:43 | -12.37221 | -38.52656 | 34071 ft | 473 kts | 216° |
| 2026-05-04 00:44 | -12.42566 | -38.56579 | 34073 ft | 473 kts | 216° |
| 2026-05-04 00:44 | -12.47914 | -38.60503 | 34073 ft | 473 kts | 216° |
| 2026-05-04 00:45 | -12.53264 | -38.64437 | 34071 ft | 473 kts | 217° |
| 2026-05-04 00:45 | -12.58605 | -38.68364 | 34071 ft | 473 kts | 216° |
| 2026-05-04 00:46 | -12.63954 | -38.72298 | 34071 ft | 473 kts | 217° |
| 2026-05-04 00:46 | -12.69305 | -38.76235 | 34068 ft | 474 kts | 217° |
| 2026-05-04 00:47 | -12.74657 | -38.80173 | 34068 ft | 474 kts | 217° |
| 2026-05-04 00:47 | -12.80003 | -38.84114 | 34068 ft | 473 kts | 217° |
| 2026-05-04 00:48 | -12.85349 | -38.88065 | 34067 ft | 474 kts | 217° |
| 2026-05-04 00:48 | -12.90690 | -38.92020 | 34066 ft | 474 kts | 217° |
| 2026-05-04 00:49 | -12.96030 | -38.95978 | 34068 ft | 474 kts | 217° |
| 2026-05-04 00:49 | -13.01366 | -38.99934 | 34068 ft | 474 kts | 217° |
| 2026-05-04 00:50 | -13.06707 | -39.03892 | 34073 ft | 474 kts | 217° |
| 2026-05-04 00:50 | -13.12045 | -39.07851 | 34073 ft | 473 kts | 217° |
| 2026-05-04 00:51 | -13.17378 | -39.11810 | 34077 ft | 473 kts | 217° |
| 2026-05-04 00:51 | -13.22711 | -39.15777 | 34080 ft | 473 kts | 217° |
| 2026-05-04 00:52 | -13.28013 | -39.19712 | 34085 ft | 474 kts | 217° |
| 2026-05-04 00:52 | -13.33381 | -39.23704 | 34085 ft | 474 kts | 217° |
| 2026-05-04 00:53 | -13.38686 | -39.27649 | 34088 ft | 474 kts | 217° |
| 2026-05-04 00:53 | -13.44058 | -39.31647 | 34095 ft | 474 kts | 217° |
| 2026-05-04 00:54 | -13.49353 | -39.35604 | 34095 ft | 474 kts | 217° |
| 2026-05-04 00:54 | -13.54677 | -39.39595 | 34095 ft | 474 kts | 217° |
| 2026-05-04 00:55 | -13.60042 | -39.43616 | 34102 ft | 474 kts | 217° |
| 2026-05-04 00:55 | -13.65325 | -39.47578 | 34101 ft | 473 kts | 217° |
| 2026-05-04 00:56 | -13.70647 | -39.51572 | 34106 ft | 473 kts | 217° |
| 2026-05-04 00:56 | -13.75959 | -39.55565 | 34106 ft | 473 kts | 217° |
| 2026-05-04 00:57 | -13.81283 | -39.59556 | 34106 ft | 473 kts | 217° |
| 2026-05-04 00:57 | -13.86601 | -39.63548 | 34108 ft | 473 kts | 217° |
| 2026-05-04 00:58 | -13.91908 | -39.67541 | 34110 ft | 473 kts | 217° |
| 2026-05-04 00:58 | -13.97216 | -39.71537 | 34108 ft | 473 kts | 217° |
| 2026-05-04 00:59 | -14.02520 | -39.75539 | 34108 ft | 472 kts | 217° |
| 2026-05-04 00:59 | -14.07828 | -39.79533 | 34110 ft | 472 kts | 217° |
| 2026-05-04 01:00 | -14.13137 | -39.83531 | 34112 ft | 472 kts | 217° |
| 2026-05-04 01:00 | -14.18430 | -39.87520 | 34119 ft | 472 kts | 217° |
| 2026-05-04 01:01 | -14.23725 | -39.91513 | 34121 ft | 472 kts | 217° |
| 2026-05-04 01:01 | -14.29022 | -39.95510 | 34122 ft | 472 kts | 217° |
| 2026-05-04 01:02 | -14.34314 | -39.99509 | 34123 ft | 471 kts | 217° |
| 2026-05-04 01:02 | -14.39592 | -40.03499 | 34121 ft | 470 kts | 217° |
| 2026-05-04 01:03 | -14.44866 | -40.07488 | 34124 ft | 470 kts | 217° |
| 2026-05-04 01:03 | -14.50099 | -40.11453 | 34125 ft | 470 kts | 217° |
| 2026-05-04 01:04 | -14.55358 | -40.15450 | 34132 ft | 469 kts | 217° |
| 2026-05-04 01:04 | -14.60625 | -40.19432 | 34130 ft | 469 kts | 217° |
| 2026-05-04 01:05 | -14.65896 | -40.23424 | 34139 ft | 470 kts | 217° |
| 2026-05-04 01:05 | -14.71157 | -40.27413 | 34137 ft | 469 kts | 217° |
| 2026-05-04 01:06 | -14.76420 | -40.31410 | 34141 ft | 469 kts | 217° |
| 2026-05-04 01:06 | -14.81675 | -40.35402 | 34141 ft | 469 kts | 218° |
| 2026-05-04 01:07 | -14.86925 | -40.39391 | 34143 ft | 468 kts | 217° |
| 2026-05-04 01:07 | -14.92165 | -40.43377 | 34139 ft | 468 kts | 218° |
| 2026-05-04 01:08 | -14.97405 | -40.47367 | 34133 ft | 468 kts | 217° |
| 2026-05-04 01:08 | -15.02641 | -40.51355 | 34135 ft | 467 kts | 218° |
| 2026-05-04 01:09 | -15.07866 | -40.55337 | 34140 ft | 466 kts | 218° |
| 2026-05-04 01:09 | -15.13079 | -40.59315 | 34136 ft | 466 kts | 218° |
| 2026-05-04 01:10 | -15.18303 | -40.63298 | 34135 ft | 466 kts | 218° |
| 2026-05-04 01:10 | -15.23520 | -40.67280 | 34136 ft | 466 kts | 218° |
| 2026-05-04 01:11 | -15.28727 | -40.71258 | 34141 ft | 464 kts | 218° |
| 2026-05-04 01:11 | -15.33919 | -40.75227 | 34139 ft | 464 kts | 218° |
| 2026-05-04 01:12 | -15.39077 | -40.79174 | 34141 ft | 464 kts | 218° |
| 2026-05-04 01:12 | -15.44263 | -40.83148 | 34142 ft | 464 kts | 218° |
| 2026-05-04 01:13 | -15.49454 | -40.87125 | 34142 ft | 464 kts | 218° |
| 2026-05-04 01:13 | -15.54646 | -40.91102 | 34144 ft | 463 kts | 218° |
| 2026-05-04 01:14 | -15.59831 | -40.95074 | 34144 ft | 463 kts | 218° |
| 2026-05-04 01:14 | -15.65013 | -40.99051 | 34145 ft | 463 kts | 218° |
| 2026-05-04 01:15 | -15.70196 | -41.03033 | 34144 ft | 463 kts | 218° |
| 2026-05-04 01:15 | -15.75373 | -41.07013 | 34142 ft | 463 kts | 218° |
| 2026-05-04 01:16 | -15.80545 | -41.10985 | 34148 ft | 462 kts | 218° |
| 2026-05-04 01:16 | -15.85717 | -41.14965 | 34153 ft | 462 kts | 219° |
| 2026-05-04 01:17 | -15.90879 | -41.18938 | 34150 ft | 462 kts | 219° |
| 2026-05-04 01:17 | -15.96053 | -41.22919 | 34145 ft | 462 kts | 219° |
| 2026-05-04 01:18 | -16.01218 | -41.26900 | 34144 ft | 462 kts | 219° |
| 2026-05-04 01:18 | -16.06376 | -41.30882 | 34144 ft | 462 kts | 219° |
| 2026-05-04 01:19 | -16.11527 | -41.34859 | 34144 ft | 462 kts | 219° |
| 2026-05-04 01:19 | -16.16683 | -41.38841 | 34147 ft | 461 kts | 219° |
| 2026-05-04 01:20 | -16.21834 | -41.42818 | 34149 ft | 461 kts | 219° |
| 2026-05-04 01:20 | -16.26986 | -41.46801 | 34144 ft | 461 kts | 219° |
| 2026-05-04 01:21 | -16.31262 | -41.50110 | 34148 ft | 461 kts | 219° |
| 2026-05-04 01:21 | -16.37240 | -41.54740 | 34146 ft | 461 kts | 219° |
| 2026-05-04 01:22 | -16.42377 | -41.58719 | 34148 ft | 460 kts | 219° |
| 2026-05-04 01:22 | -16.47511 | -41.62698 | 34144 ft | 460 kts | 219° |
| 2026-05-04 01:23 | -16.51807 | -41.66029 | 34142 ft | 460 kts | 219° |
| 2026-05-04 01:23 | -16.56939 | -41.70011 | 34142 ft | 460 kts | 219° |
| 2026-05-04 01:24 | -16.62063 | -41.73994 | 34149 ft | 459 kts | 219° |
| 2026-05-04 01:24 | -16.67152 | -41.77947 | 34140 ft | 459 kts | 219° |
| 2026-05-04 01:25 | -16.72275 | -41.81925 | 34141 ft | 459 kts | 219° |
| 2026-05-04 01:25 | -16.77390 | -41.85909 | 34143 ft | 459 kts | 219° |
| 2026-05-04 01:26 | -16.82513 | -41.89902 | 34147 ft | 459 kts | 219° |
| 2026-05-04 01:26 | -16.87626 | -41.93889 | 34145 ft | 459 kts | 219° |
| 2026-05-04 01:27 | -16.92739 | -41.97881 | 34138 ft | 459 kts | 219° |
| 2026-05-04 01:27 | -16.97853 | -42.01873 | 34145 ft | 459 kts | 219° |
| 2026-05-04 01:28 | -17.02966 | -42.05865 | 34145 ft | 459 kts | 219° |
| 2026-05-04 01:28 | -17.08077 | -42.09862 | 34152 ft | 459 kts | 220° |
| 2026-05-04 01:29 | -17.13183 | -42.13858 | 34144 ft | 458 kts | 220° |
| 2026-05-04 01:29 | -17.18289 | -42.17851 | 34152 ft | 458 kts | 220° |
| 2026-05-04 01:30 | -17.23385 | -42.21853 | 34150 ft | 458 kts | 220° |
| 2026-05-04 01:30 | -17.28487 | -42.25857 | 34160 ft | 458 kts | 220° |
| 2026-05-04 01:31 | -17.33573 | -42.29849 | 34157 ft | 457 kts | 220° |
| 2026-05-04 01:31 | -17.38653 | -42.33842 | 34154 ft | 457 kts | 220° |
| 2026-05-04 01:32 | -17.43743 | -42.37842 | 34160 ft | 457 kts | 220° |
| 2026-05-04 01:32 | -17.48827 | -42.41842 | 34167 ft | 457 kts | 220° |
| 2026-05-04 01:33 | -17.53899 | -42.45830 | 34158 ft | 455 kts | 220° |
| 2026-05-04 01:33 | -17.58963 | -42.49820 | 34160 ft | 456 kts | 220° |
| 2026-05-04 01:34 | -17.63995 | -42.53785 | 34156 ft | 456 kts | 220° |
| 2026-05-04 01:34 | -17.69057 | -42.57781 | 34160 ft | 455 kts | 220° |
| 2026-05-04 01:35 | -17.74116 | -42.61774 | 34157 ft | 455 kts | 220° |
| 2026-05-04 01:35 | -17.79160 | -42.65756 | 34158 ft | 454 kts | 220° |
| 2026-05-04 01:36 | -17.84205 | -42.69742 | 34155 ft | 454 kts | 220° |
| 2026-05-04 01:36 | -17.89245 | -42.73731 | 34154 ft | 454 kts | 220° |
| 2026-05-04 01:37 | -17.94289 | -42.77721 | 34156 ft | 454 kts | 220° |
| 2026-05-04 01:37 | -17.99329 | -42.81711 | 34159 ft | 453 kts | 220° |
| 2026-05-04 01:38 | -18.04362 | -42.85704 | 34158 ft | 453 kts | 220° |
| 2026-05-04 01:38 | -18.09390 | -42.89695 | 34152 ft | 453 kts | 220° |
| 2026-05-04 01:39 | -18.14419 | -42.93690 | 34147 ft | 452 kts | 221° |
| 2026-05-04 01:39 | -18.19437 | -42.97677 | 34170 ft | 452 kts | 221° |
| 2026-05-04 01:40 | -18.24453 | -43.01666 | 34155 ft | 452 kts | 221° |
| 2026-05-04 01:40 | -18.29470 | -43.05658 | 34165 ft | 453 kts | 221° |
| 2026-05-04 01:41 | -18.34488 | -43.09651 | 34168 ft | 452 kts | 221° |
| 2026-05-04 01:41 | -18.39490 | -43.13640 | 34158 ft | 451 kts | 221° |
| 2026-05-04 01:42 | -18.44467 | -43.17669 | 34156 ft | 451 kts | 221° |
| 2026-05-04 01:42 | -18.49437 | -43.21696 | 34170 ft | 451 kts | 221° |
| 2026-05-04 01:43 | -18.54401 | -43.25724 | 34173 ft | 450 kts | 221° |
| 2026-05-04 01:43 | -18.59368 | -43.29750 | 34167 ft | 450 kts | 221° |
| 2026-05-04 01:44 | -18.64336 | -43.33775 | 34161 ft | 450 kts | 221° |
| 2026-05-04 01:44 | -18.69343 | -43.37747 | 34159 ft | 451 kts | 221° |
| 2026-05-04 01:45 | -18.74325 | -43.41694 | 34168 ft | 450 kts | 221° |
| 2026-05-04 01:45 | -18.81824 | -43.47652 | 34167 ft | 450 kts | 221° |
| 2026-05-04 01:46 | -18.86822 | -43.51627 | 34165 ft | 450 kts | 221° |
| 2026-05-04 01:46 | -18.91876 | -43.55542 | 34167 ft | 451 kts | 220° |
| 2026-05-04 01:47 | -18.96950 | -43.59432 | 34168 ft | 451 kts | 220° |
| 2026-05-04 01:47 | -19.02024 | -43.63331 | 34156 ft | 451 kts | 220° |
| 2026-05-04 01:48 | -19.07093 | -43.67226 | 34159 ft | 451 kts | 220° |
| 2026-05-04 01:48 | -19.12168 | -43.71131 | 34158 ft | 451 kts | 220° |
| 2026-05-04 01:49 | -19.17236 | -43.75031 | 34168 ft | 451 kts | 220° |
| 2026-05-04 01:49 | -19.22304 | -43.78935 | 34161 ft | 450 kts | 220° |
| 2026-05-04 01:50 | -19.27366 | -43.82840 | 34161 ft | 450 kts | 220° |
| 2026-05-04 01:50 | -19.32422 | -43.86744 | 34166 ft | 450 kts | 220° |
| 2026-05-04 01:51 | -19.37479 | -43.90649 | 34185 ft | 449 kts | 220° |
| 2026-05-04 01:51 | -19.42533 | -43.94552 | 34195 ft | 449 kts | 221° |
| 2026-05-04 01:52 | -19.47576 | -43.98458 | 34209 ft | 449 kts | 221° |
| 2026-05-04 01:52 | -19.52620 | -44.02362 | 34223 ft | 449 kts | 221° |
| 2026-05-04 01:53 | -19.57666 | -44.06268 | 34233 ft | 448 kts | 221° |
| 2026-05-04 01:53 | -19.62713 | -44.10136 | 34160 ft | 448 kts | 221° |
| 2026-05-04 01:54 | -19.67768 | -44.14013 | 34156 ft | 448 kts | 221° |
| 2026-05-04 01:54 | -19.72810 | -44.17895 | 34175 ft | 448 kts | 221° |
| 2026-05-04 01:55 | -19.77842 | -44.21781 | 34164 ft | 447 kts | 221° |
| 2026-05-04 01:55 | -19.82869 | -44.25672 | 34163 ft | 447 kts | 221° |
| 2026-05-04 01:56 | -19.87853 | -44.29539 | 34174 ft | 447 kts | 221° |
| 2026-05-04 01:56 | -19.92869 | -44.33428 | 34192 ft | 447 kts | 221° |
| 2026-05-04 01:57 | -19.97876 | -44.37307 | 34180 ft | 444 kts | 221° |
| 2026-05-04 01:57 | -20.02876 | -44.41187 | 34179 ft | 445 kts | 221° |
| 2026-05-04 01:58 | -20.07865 | -44.45062 | 34182 ft | 444 kts | 221° |
| 2026-05-04 01:58 | -20.12855 | -44.48941 | 34208 ft | 444 kts | 221° |
| 2026-05-04 01:59 | -20.17819 | -44.52803 | 34202 ft | 442 kts | 221° |
| 2026-05-04 01:59 | -20.22778 | -44.56659 | 34176 ft | 442 kts | 221° |
| 2026-05-04 02:00 | -20.27739 | -44.60521 | 34198 ft | 442 kts | 221° |
| 2026-05-04 02:00 | -20.32700 | -44.64382 | 34204 ft | 441 kts | 221° |
| 2026-05-04 02:01 | -20.37648 | -44.68237 | 34210 ft | 441 kts | 221° |
| 2026-05-04 02:01 | -20.42588 | -44.72090 | 34198 ft | 440 kts | 221° |
| 2026-05-04 02:02 | -20.47539 | -44.75949 | 34203 ft | 440 kts | 221° |
| 2026-05-04 02:02 | -20.52484 | -44.79807 | 34210 ft | 440 kts | 222° |
| 2026-05-04 02:03 | -20.57422 | -44.83666 | 34204 ft | 440 kts | 222° |
| 2026-05-04 02:03 | -20.62356 | -44.87525 | 34209 ft | 440 kts | 222° |
| 2026-05-04 02:04 | -20.67289 | -44.91384 | 34209 ft | 440 kts | 222° |
| 2026-05-04 02:04 | -20.72225 | -44.95248 | 34213 ft | 439 kts | 222° |
| 2026-05-04 02:05 | -20.77147 | -44.99112 | 34214 ft | 439 kts | 222° |
| 2026-05-04 02:05 | -20.82065 | -45.02976 | 34211 ft | 439 kts | 222° |
| 2026-05-04 02:06 | -20.86979 | -45.06838 | 34210 ft | 439 kts | 222° |
| 2026-05-04 02:06 | -20.91861 | -45.10686 | 34206 ft | 439 kts | 222° |
| 2026-05-04 02:07 | -20.96798 | -45.14588 | 34207 ft | 437 kts | 222° |
| 2026-05-04 02:07 | -21.01624 | -45.18390 | 34204 ft | 430 kts | 222° |
| 2026-05-04 02:08 | -21.06476 | -45.22221 | 34210 ft | 437 kts | 222° |
| 2026-05-04 02:08 | -21.11377 | -45.26089 | 34207 ft | 438 kts | 222° |
| 2026-05-04 02:09 | -21.15463 | -45.29316 | 34208 ft | 438 kts | 222° |
| 2026-05-04 02:09 | -21.20397 | -45.33219 | 34206 ft | 438 kts | 222° |
| 2026-05-04 02:10 | -21.25263 | -45.37069 | 34205 ft | 436 kts | 222° |
| 2026-05-04 02:10 | -21.30102 | -45.40899 | 34216 ft | 427 kts | 222° |
| 2026-05-04 02:11 | -21.34908 | -45.44716 | 34204 ft | 434 kts | 222° |
| 2026-05-04 02:11 | -21.39786 | -45.48584 | 34206 ft | 437 kts | 222° |
| 2026-05-04 02:12 | -21.44662 | -45.52456 | 34213 ft | 436 kts | 222° |
| 2026-05-04 02:12 | -21.49549 | -45.56331 | 34208 ft | 437 kts | 222° |
| 2026-05-04 02:13 | -21.54455 | -45.60185 | 34213 ft | 436 kts | 222° |
| 2026-05-04 02:13 | -21.59334 | -45.64010 | 34222 ft | 430 kts | 222° |
| 2026-05-04 02:14 | -21.64136 | -45.67787 | 34213 ft | 431 kts | 222° |
| 2026-05-04 02:14 | -21.69002 | -45.71618 | 34213 ft | 434 kts | 222° |
| 2026-05-04 02:15 | -21.73883 | -45.75458 | 34211 ft | 435 kts | 222° |
| 2026-05-04 02:15 | -21.78758 | -45.79299 | 34212 ft | 435 kts | 222° |
| 2026-05-04 02:16 | -21.83629 | -45.83139 | 34211 ft | 433 kts | 222° |
| 2026-05-04 02:16 | -21.88446 | -45.86941 | 34212 ft | 427 kts | 222° |
| 2026-05-04 02:17 | -21.93224 | -45.90711 | 33931 ft | 419 kts | 223° |
| 2026-05-04 02:17 | -21.95572 | -45.92563 | 33260 ft | 417 kts | 223° |
| 2026-05-04 02:17 | -21.97875 | -45.94383 | 32469 ft | 416 kts | 223° |
| 2026-05-04 02:18 | -22.00205 | -45.96227 | 31670 ft | 415 kts | 223° |
| 2026-05-04 02:18 | -22.02531 | -45.98068 | 30976 ft | 415 kts | 223° |
| 2026-05-04 02:18 | -22.04881 | -45.99939 | 30293 ft | 414 kts | 223° |
| 2026-05-04 02:18 | -22.07171 | -46.01759 | 29536 ft | 413 kts | 223° |
| 2026-05-04 02:19 | -22.09508 | -46.03613 | 28805 ft | 411 kts | 222° |
| 2026-05-04 02:19 | -22.11806 | -46.05436 | 28134 ft | 409 kts | 222° |
| 2026-05-04 02:19 | -22.14088 | -46.07245 | 27475 ft | 406 kts | 222° |
| 2026-05-04 02:19 | -22.16356 | -46.09045 | 26812 ft | 404 kts | 222° |
| 2026-05-04 02:20 | -22.18616 | -46.10841 | 26179 ft | 402 kts | 221° |
| 2026-05-04 02:20 | -22.20869 | -46.12628 | 25540 ft | 401 kts | 221° |
| 2026-05-04 02:20 | -22.23081 | -46.14385 | 24914 ft | 399 kts | 221° |
| 2026-05-04 02:20 | -22.25302 | -46.16152 | 24266 ft | 396 kts | 221° |
| 2026-05-04 02:21 | -22.27515 | -46.17912 | 23598 ft | 393 kts | 221° |
| 2026-05-04 02:21 | -22.29737 | -46.19673 | 22881 ft | 390 kts | 220° |
| 2026-05-04 02:21 | -22.32074 | -46.21101 | 22211 ft | 393 kts | 207° |
| 2026-05-04 02:21 | -22.34714 | -46.21881 | 21781 ft | 396 kts | 195° |
| 2026-05-04 02:22 | -22.37483 | -46.22314 | 21481 ft | 397 kts | 192° |
| 2026-05-04 02:22 | -22.40171 | -46.22683 | 21204 ft | 395 kts | 192° |
| 2026-05-04 02:22 | -22.42928 | -46.23073 | 20713 ft | 391 kts | 192° |
| 2026-05-04 02:22 | -22.45572 | -46.23468 | 20174 ft | 388 kts | 193° |
| 2026-05-04 02:23 | -22.48237 | -46.23875 | 19619 ft | 386 kts | 192° |
| 2026-05-04 02:23 | -22.50866 | -46.24375 | 19162 ft | 379 kts | 201° |
| 2026-05-04 02:23 | -22.53280 | -46.25427 | 18872 ft | 373 kts | 209° |
| 2026-05-04 02:23 | -22.55619 | -46.26645 | 18620 ft | 371 kts | 210° |
| 2026-05-04 02:24 | -22.57940 | -46.27854 | 18389 ft | 371 kts | 209° |
| 2026-05-04 02:24 | -22.60271 | -46.29043 | 18130 ft | 370 kts | 208° |
| 2026-05-04 02:24 | -22.62600 | -46.30217 | 17882 ft | 369 kts | 208° |
| 2026-05-04 02:24 | -22.64928 | -46.31382 | 17627 ft | 368 kts | 208° |
| 2026-05-04 02:25 | -22.67246 | -46.32538 | 17376 ft | 367 kts | 208° |
| 2026-05-04 02:25 | -22.69561 | -46.33692 | 17126 ft | 366 kts | 208° |
| 2026-05-04 02:25 | -22.71869 | -46.34844 | 16871 ft | 365 kts | 208° |
| 2026-05-04 02:25 | -22.74171 | -46.35997 | 16639 ft | 364 kts | 208° |
| 2026-05-04 02:26 | -22.76465 | -46.37143 | 16396 ft | 363 kts | 208° |
| 2026-05-04 02:26 | -22.78757 | -46.38292 | 16163 ft | 362 kts | 208° |
| 2026-05-04 02:26 | -22.81042 | -46.39439 | 15922 ft | 361 kts | 208° |
| 2026-05-04 02:26 | -22.83323 | -46.40583 | 15693 ft | 360 kts | 208° |
| 2026-05-04 02:27 | -22.85593 | -46.41720 | 15453 ft | 359 kts | 208° |
| 2026-05-04 02:27 | -22.87855 | -46.42855 | 15217 ft | 359 kts | 208° |
| 2026-05-04 02:27 | -22.90125 | -46.43993 | 14970 ft | 358 kts | 208° |
| 2026-05-04 02:27 | -22.92377 | -46.45125 | 14610 ft | 356 kts | 208° |
| 2026-05-04 02:28 | -22.94623 | -46.46253 | 14184 ft | 356 kts | 208° |
| 2026-05-04 02:28 | -22.96876 | -46.47383 | 13685 ft | 357 kts | 207° |
| 2026-05-04 02:28 | -22.99128 | -46.48516 | 13167 ft | 358 kts | 207° |
| 2026-05-04 02:28 | -23.01386 | -46.49653 | 12684 ft | 357 kts | 207° |
| 2026-05-04 02:29 | -23.03642 | -46.50788 | 12209 ft | 357 kts | 207° |
| 2026-05-04 02:29 | -23.05898 | -46.51923 | 11727 ft | 358 kts | 207° |
| 2026-05-04 02:29 | -23.08162 | -46.53063 | 11226 ft | 359 kts | 207° |
| 2026-05-04 02:29 | -23.10398 | -46.54189 | 10875 ft | 349 kts | 207° |
| 2026-05-04 02:30 | -23.12554 | -46.55273 | 10666 ft | 335 kts | 207° |
| 2026-05-04 02:30 | -23.14625 | -46.56315 | 10484 ft | 321 kts | 207° |
| 2026-05-04 02:30 | -23.16609 | -46.57314 | 10306 ft | 308 kts | 207° |
| 2026-05-04 02:30 | -23.18515 | -46.58276 | 10085 ft | 298 kts | 207° |
| 2026-05-04 02:31 | -23.20390 | -46.59223 | 9627 ft | 297 kts | 207° |
| 2026-05-04 02:31 | -23.22267 | -46.60172 | 9127 ft | 297 kts | 207° |
| 2026-05-04 02:31 | -23.24136 | -46.61116 | 8689 ft | 294 kts | 207° |
| 2026-05-04 02:31 | -23.25990 | -46.62051 | 8258 ft | 293 kts | 207° |
| 2026-05-04 02:32 | -23.27835 | -46.62984 | 7825 ft | 292 kts | 206° |
| 2026-05-04 02:32 | -23.29667 | -46.63910 | 7441 ft | 289 kts | 206° |
| 2026-05-04 02:32 | -23.31485 | -46.64829 | 7021 ft | 288 kts | 206° |
| 2026-05-04 02:32 | -23.33295 | -46.65743 | 6625 ft | 286 kts | 206° |
| 2026-05-04 02:33 | -23.35097 | -46.66655 | 6209 ft | 285 kts | 204° |
| 2026-05-04 02:33 | -23.36875 | -46.67556 | 5979 ft | 276 kts | 204° |
| 2026-05-04 02:33 | -23.38567 | -46.68424 | 5937 ft | 260 kts | 203° |
| 2026-05-04 02:33 | -23.40152 | -46.69226 | 5931 ft | 244 kts | 201° |
| 2026-05-04 02:34 | -23.41732 | -46.69624 | 5925 ft | 223 kts | 178° |
| 2026-05-04 02:34 | -23.43201 | -46.69389 | 5856 ft | 211 kts | 149° |
| 2026-05-04 02:34 | -23.44250 | -46.68341 | 5592 ft | 205 kts | 122° |
| 2026-05-04 02:34 | -23.44993 | -46.67024 | 5289 ft | 202 kts | 120° |
| 2026-05-04 02:35 | -23.45744 | -46.65695 | 4974 ft | 200 kts | 121° |
| 2026-05-04 02:35 | -23.46478 | -46.64463 | 4669 ft | 197 kts | 122° |
| 2026-05-04 02:35 | -23.47162 | -46.63218 | 4504 ft | 182 kts | 114° |
| 2026-05-04 02:35 | -23.47375 | -46.61965 | 4432 ft | 159 kts | 88° |
| 2026-05-04 02:36 | -23.47167 | -46.60818 | 4206 ft | 154 kts | 78° |
| 2026-05-04 02:36 | -23.46864 | -46.59724 | 4242 ft | 147 kts | 77° |
| 2026-05-04 02:36 | -23.46575 | -46.58658 | 4166 ft | 146 kts | 77° |
| 2026-05-04 02:36 | -23.46288 | -46.57594 | 4062 ft | 146 kts | 77° |
| 2026-05-04 02:37 | -23.46001 | -46.56532 | 3971 ft | 146 kts | 77° |
| 2026-05-04 02:37 | -23.45714 | -46.55472 | 3831 ft | 146 kts | 76° |
| 2026-05-04 02:37 | -23.45427 | -46.54410 | 3630 ft | 146 kts | 76° |
| 2026-05-04 02:37 | -23.45141 | -46.53353 | 3443 ft | 145 kts | 77° |
| 2026-05-04 02:38 | -23.44854 | -46.52294 | 3228 ft | 146 kts | 76° |
| 2026-05-04 02:38 | -23.44571 | -46.51245 | 3010 ft | 147 kts | 75° |
| 2026-05-04 02:38 | -23.44280 | -46.50161 | 2797 ft | 147 kts | 75° |
| 2026-05-04 02:38 | -23.43992 | -46.49089 | 2573 ft | 147 kts | 74° |
| 2026-05-04 02:39 | -23.43706 | -46.48052 | 2475 ft | 132 kts | 75° |
| 2026-05-04 02:39 | -23.43488 | -46.47246 | 2468 ft | 79 kts | 74° |
| 2026-05-04 02:39 | -23.43397 | -46.46986 | 2468 ft | 21 kts | 56° |
| 2026-05-04 02:39 | -23.43303 | -46.46864 | 2469 ft | 23 kts | 44° |
| 2026-05-04 02:40 | -23.43190 | -46.46747 | 2469 ft | 24 kts | 42° |
| 2026-05-04 02:40 | -23.43033 | -46.46736 | 2471 ft | 25 kts | 341° |
| 2026-05-04 02:40 | -23.42886 | -46.46784 | 2471 ft | 14 kts | 343° |
| 2026-05-04 02:40 | -23.42801 | -46.46811 | 2470 ft | 13 kts | 340° |
| 2026-05-04 02:41 | -23.42778 | -46.46894 | 2467 ft | 11 kts | 256° |
| 2026-05-04 02:41 | -23.42801 | -46.46980 | 2468 ft | 12 kts | 250° |
| 2026-05-04 02:41 | -23.42829 | -46.47072 | 2466 ft | 13 kts | 253° |
| 2026-05-04 02:41 | -23.42856 | -46.47173 | 2468 ft | 14 kts | 255° |
| 2026-05-04 02:42 | -23.42886 | -46.47280 | 2469 ft | 15 kts | 254° |
| 2026-05-04 02:42 | -23.42917 | -46.47395 | 2468 ft | 16 kts | 253° |
| 2026-05-04 02:42 | -23.42949 | -46.47516 | 2466 ft | 17 kts | 252° |